Time;durP1;ratioP1;P1;durP2;ratioP2;P2;SDS_P1;SDS_P2;PMS_P1;PMS_P2;Temp;Humidity;BMP_temperature;BMP_pressure;BME280_temperature;BME280_humidity;BME280_pressure;Samples;Min_cycle;Max_cycle;Signal;HPM_P1;HPM_P2
2023/04/11 00:02:19;;;;;;;6.10;3.25;;;12.00;99.90;;;;;;5050945;28;20021;-70
2023/04/11 00:04:46;;;;;;;4.20;2.80;;;12.00;99.90;;;;;;5050706;28;20029;-68
2023/04/11 00:07:12;;;;;;;4.90;2.50;;;12.00;99.90;;;;;;5050394;28;20028;-70
2023/04/11 00:09:38;;;;;;;4.53;2.30;;;12.00;99.90;;;;;;5050746;28;20125;-70
2023/04/11 00:12:04;;;;;;;5.32;2.75;;;12.00;99.90;;;;;;5032269;28;20025;-69
2023/04/11 00:14:33;;;;;;;4.05;2.80;;;12.10;99.90;;;;;;5032277;28;20064;-69
2023/04/11 00:17:00;;;;;;;4.30;2.30;;;12.10;99.90;;;;;;5050303;28;20021;-70
2023/04/11 00:19:27;;;;;;;;;;;12.10;99.90;;;;;;5051054;28;20045;-68
2023/04/11 00:21:59;;;;;;;4.32;2.35;;;12.10;99.90;;;;;;5050343;28;19936;-69
2023/04/11 00:24:25;;;;;;;6.32;2.05;;;12.10;99.90;;;;;;5050931;28;20504;-69
2023/04/11 00:26:52;;;;;;;4.38;2.05;;;12.00;99.90;;;;;;5053865;28;20043;-70
2023/04/11 00:29:19;;;;;;;4.75;2.35;;;12.00;99.90;;;;;;5054506;28;20040;-68
2023/04/11 00:31:46;;;;;;;4.65;2.38;;;12.00;99.90;;;;;;5054397;28;20535;-70
2023/04/11 00:34:12;;;;;;;7.35;2.58;;;11.90;99.90;;;;;;5054241;28;20036;-68
2023/04/11 00:36:40;;;;;;;4.87;2.70;;;11.80;99.90;;;;;;5054129;28;20025;-70
2023/04/11 00:39:08;;;;;;;5.97;2.20;;;11.90;99.90;;;;;;5054329;28;20104;-70
2023/04/11 00:41:34;;;;;;;4.65;2.50;;;11.90;99.90;;;;;;5053897;28;20218;-70
2023/04/11 00:44:12;;;;;;;9.35;2.42;;;11.90;99.90;;;;;;5053947;28;20021;-67
2023/04/11 00:46:41;;;;;;;6.10;2.28;;;11.90;99.90;;;;;;5053929;28;20033;-69
2023/04/11 00:49:09;;;;;;;4.00;2.15;;;11.90;99.90;;;;;;5035756;28;20108;-70
2023/04/11 00:51:35;;;;;;;4.63;2.03;;;11.90;99.90;;;;;;5035552;28;20020;-70
2023/04/11 00:54:02;;;;;;;6.95;2.40;;;12.00;99.90;;;;;;5053748;28;20056;-68
2023/04/11 00:56:28;;;;;;;5.63;2.50;;;12.00;99.90;;;;;;5054024;28;20021;-69
2023/04/11 00:58:55;;;;;;;7.97;3.53;;;12.00;99.90;;;;;;5054288;28;20085;-69
2023/04/11 01:01:24;;;;;;;4.88;2.60;;;12.00;99.90;;;;;;5053735;28;20049;-68
2023/04/11 01:03:50;;;;;;;6.30;3.08;;;11.90;99.90;;;;;;5053765;28;20036;-70
2023/04/11 01:06:19;;;;;;;5.50;2.72;;;11.90;99.90;;;;;;5053488;28;20350;-69
2023/04/11 01:08:47;;;;;;;5.03;2.78;;;11.80;99.90;;;;;;5053298;28;20503;-66
2023/04/11 01:11:16;;;;;;;4.82;2.45;;;11.70;99.90;;;;;;5053389;28;20028;-69
2023/04/11 01:13:43;;;;;;;5.80;2.95;;;11.70;99.90;;;;;;5035633;28;20074;-69
2023/04/11 01:16:09;;;;;;;4.82;3.10;;;11.70;99.90;;;;;;5053724;28;20028;-69
2023/04/11 01:18:36;;;;;;;3.65;2.60;;;11.70;99.90;;;;;;5053651;28;20021;-68
2023/04/11 01:21:02;;;;;;;8.07;3.00;;;11.80;99.90;;;;;;5052954;28;20067;-70
2023/04/11 01:23:28;;;;;;;6.85;2.95;;;11.90;99.90;;;;;;5053562;28;20048;-69
2023/04/11 01:25:54;;;;;;;6.43;2.83;;;11.90;99.90;;;;;;5053208;28;20052;-70
2023/04/11 01:28:21;;;;;;;5.83;3.23;;;11.90;99.90;;;;;;5053018;28;20481;-70
2023/04/11 01:30:47;;;;;;;;;;;11.90;99.90;;;;;;5053495;28;20351;-69
2023/04/11 01:33:15;;;;;;;5.43;3.35;;;12.00;99.90;;;;;;5053031;28;20035;-69
2023/04/11 01:35:41;;;;;;;4.40;2.88;;;12.00;99.90;;;;;;5052980;28;20025;-70
2023/04/11 01:38:08;;;;;;;5.18;3.05;;;12.00;99.90;;;;;;5052883;28;20458;-70
2023/04/11 01:40:34;;;;;;;7.18;3.40;;;11.90;99.90;;;;;;5052750;28;20155;-69
2023/04/11 01:43:01;;;;;;;5.63;3.63;;;11.90;99.90;;;;;;5052851;28;20496;-69
2023/04/11 01:45:29;;;;;;;5.25;3.70;;;11.90;99.90;;;;;;5035050;28;20095;-69
2023/04/11 01:47:55;;;;;;;5.63;3.42;;;11.90;99.90;;;;;;5034853;28;20124;-69
2023/04/11 01:50:22;;;;;;;;;;;12.00;99.90;;;;;;5053192;28;20044;-69
2023/04/11 01:52:48;;;;;;;7.10;4.45;;;12.00;99.90;;;;;;5034313;28;20305;-69
2023/04/11 01:55:15;;;;;;;6.32;4.30;;;12.00;99.90;;;;;;5052538;28;20170;-70
2023/04/11 01:57:41;;;;;;;8.18;4.50;;;12.00;99.90;;;;;;5052493;28;20392;-70
2023/04/11 02:00:09;;;;;;;6.25;4.55;;;12.00;99.90;;;;;;5052368;28;20098;-70
2023/04/11 02:02:36;;;;;;;8.30;4.43;;;12.00;99.90;;;;;;5052355;28;20057;-69
2023/04/11 02:05:03;;;;;;;;;;;12.00;99.90;;;;;;5053155;28;20021;-70
2023/04/11 02:07:29;;;;;;;7.47;4.20;;;12.00;99.90;;;;;;5052266;28;19970;-70
2023/04/11 02:09:56;;;;;;;6.05;4.30;;;12.00;99.90;;;;;;5034081;28;20164;-68
2023/04/11 02:12:22;;;;;;;6.30;4.45;;;12.00;99.90;;;;;;5033938;28;20025;-69
2023/04/11 02:14:49;;;;;;;6.77;4.83;;;12.00;99.90;;;;;;5051237;28;20104;-67
2023/04/11 02:17:17;;;;;;;7.70;5.00;;;12.00;99.90;;;;;;5052782;28;20279;-69
2023/04/11 02:19:44;;;;;;;6.90;5.10;;;12.00;99.90;;;;;;5052697;28;20453;-68
2023/04/11 02:22:15;;;;;;;8.18;4.93;;;12.00;99.90;;;;;;5033993;28;20517;-68
2023/04/11 02:24:41;;;;;;;6.18;4.70;;;12.00;99.90;;;;;;5051914;28;20104;-68
2023/04/11 02:27:08;;;;;;;8.00;4.93;;;12.00;99.90;;;;;;5052327;28;20025;-70
2023/04/11 02:29:34;;;;;;;8.23;5.22;;;12.00;99.90;;;;;;5051887;28;20029;-69
2023/04/11 02:32:01;;;;;;;6.10;5.00;;;11.90;99.90;;;;;;5051827;28;20021;-69
2023/04/11 02:34:27;;;;;;;16.97;6.97;;;12.00;99.90;;;;;;5050857;28;20040;-69
2023/04/11 02:36:53;;;;;;;6.38;4.80;;;12.00;99.90;;;;;;5051513;28;20283;-69
2023/04/11 02:39:22;;;;;;;7.10;4.65;;;12.00;99.90;;;;;;5049334;28;20052;-69
2023/04/11 02:41:49;;;;;;;7.00;5.18;;;12.00;99.90;;;;;;5050204;28;20021;-67
2023/04/11 02:44:15;;;;;;;;;;;12.00;99.90;;;;;;5050787;28;20448;-68
2023/04/11 02:46:41;;;;;;;7.05;4.85;;;12.00;99.90;;;;;;5051241;28;19912;-68
2023/04/11 02:49:07;;;;;;;7.18;5.18;;;11.90;99.90;;;;;;5050839;28;20086;-67
2023/04/11 02:51:34;;;;;;;9.47;4.90;;;11.90;99.90;;;;;;5051337;28;20021;-68
2023/04/11 02:54:00;;;;;;;8.52;4.80;;;11.90;99.90;;;;;;5051488;28;20013;-69
2023/04/11 02:56:29;;;;;;;7.77;5.50;;;11.90;99.90;;;;;;5051736;28;20433;-68
2023/04/11 02:58:56;;;;;;;9.82;5.68;;;11.80;99.90;;;;;;5051619;28;20108;-69
2023/04/11 03:01:24;;;;;;;7.57;5.00;;;11.90;99.90;;;;;;5051495;28;20033;-69
2023/04/11 03:03:50;;;;;;;8.25;5.30;;;11.80;99.90;;;;;;5050947;28;20116;-69
2023/04/11 03:06:16;;;;;;;6.77;4.77;;;11.80;99.90;;;;;;5050929;28;20173;-69
2023/04/11 03:08:42;;;;;;;11.07;4.90;;;11.70;99.90;;;;;;5051302;28;20350;-68
2023/04/11 03:11:08;;;;;;;6.78;5.05;;;11.70;99.90;;;;;;5052013;28;20033;-69
2023/04/11 03:13:35;;;;;;;10.25;5.15;;;11.70;99.90;;;;;;5051987;28;20021;-69
2023/04/11 03:16:02;;;;;;;7.75;5.43;;;11.70;99.90;;;;;;5034049;28;20025;-68
2023/04/11 03:18:28;;;;;;;8.77;5.50;;;11.70;99.90;;;;;;5051942;28;20172;-69
2023/04/11 03:20:54;;;;;;;9.47;5.63;;;11.70;99.90;;;;;;5051353;28;20099;-69
2023/04/11 03:23:20;;;;;;;7.32;5.50;;;11.70;99.90;;;;;;5052231;28;20021;-69
2023/04/11 03:25:47;;;;;;;8.45;5.30;;;11.60;99.90;;;;;;5051995;28;20500;-69
2023/04/11 03:28:14;;;;;;;7.43;5.53;;;11.70;99.90;;;;;;5052074;28;20419;-69
2023/04/11 03:30:41;;;;;;;10.60;5.60;;;11.70;99.90;;;;;;5033919;28;20037;-68
2023/04/11 03:33:10;;;;;;;7.05;5.25;;;11.80;99.90;;;;;;5052424;28;20470;-69
2023/04/11 03:35:36;;;;;;;9.52;5.47;;;11.70;99.90;;;;;;5052348;28;20445;-69
2023/04/11 03:38:02;;;;;;;8.80;5.50;;;11.70;99.90;;;;;;5051765;28;20363;-69
2023/04/11 03:40:29;;;;;;;8.23;4.72;;;11.70;99.90;;;;;;5052117;28;20036;-68
2023/04/11 03:42:55;;;;;;;7.70;5.72;;;11.70;99.90;;;;;;5051837;28;20454;-67
2023/04/11 03:45:21;;;;;;;8.50;5.57;;;11.70;99.90;;;;;;5051766;28;20099;-69
2023/04/11 03:47:47;;;;;;;7.47;5.20;;;11.70;99.90;;;;;;5051869;28;20028;-69
2023/04/11 03:50:13;;;;;;;7.23;5.27;;;11.70;99.90;;;;;;5051913;28;20124;-68
2023/04/11 03:52:39;;;;;;;7.07;4.82;;;11.70;99.90;;;;;;5051597;28;20288;-68
2023/04/11 03:55:06;;;;;;;10.38;4.72;;;11.60;99.90;;;;;;5052046;28;20067;-68
2023/04/11 03:57:32;;;;;;;6.65;4.88;;;11.60;99.90;;;;;;5051650;28;20075;-68
2023/04/11 03:59:58;;;;;;;8.55;5.20;;;11.60;99.90;;;;;;5052657;28;20326;-68
2023/04/11 04:02:24;;;;;;;6.47;5.07;;;11.60;99.90;;;;;;5056343;28;20031;-68
2023/04/11 04:04:57;;;;;;;10.10;5.97;;;11.60;99.90;;;;;;5055916;28;20346;-68
2023/04/11 04:07:27;;;;;;;6.68;4.47;;;11.60;99.90;;;;;;5055694;28;20021;-69
2023/04/11 04:09:53;;;;;;;10.10;4.80;;;11.60;99.90;;;;;;5055841;28;20472;-68
2023/04/11 04:12:20;;;;;;;9.80;5.43;;;11.60;99.90;;;;;;5055649;28;20497;-68
2023/04/11 04:14:46;;;;;;;;;;;11.60;99.90;;;;;;5056008;28;20112;-67
2023/04/11 04:17:15;;;;;;;8.55;4.93;;;11.60;99.90;;;;;;5037810;28;19947;-68
2023/04/11 04:19:43;;;;;;;7.05;4.65;;;11.60;99.90;;;;;;5055855;28;20049;-68
2023/04/11 04:22:16;;;;;;;6.68;4.25;;;11.60;99.90;;;;;;5055667;28;20041;-66
2023/04/11 04:24:44;;;;;;;6.68;4.50;;;11.80;99.90;;;;;;5038028;28;20449;-68
2023/04/11 04:27:12;;;;;;;5.45;3.97;;;11.70;99.90;;;;;;5056003;28;20113;-68
2023/04/11 04:29:45;;;;;;;7.65;5.20;;;11.70;99.90;;;;;;5056030;28;20122;-69
2023/04/11 04:32:19;;;;;;;7.68;5.20;;;11.70;99.90;;;;;;5056048;28;20021;-69
2023/04/11 04:34:53;;;;;;;9.02;5.80;;;11.70;99.90;;;;;;5056002;28;20025;-68
2023/04/11 04:37:22;;;;;;;7.88;4.60;;;11.70;99.90;;;;;;5055715;28;20491;-68
2023/04/11 04:39:52;;;;;;;8.20;5.43;;;11.70;99.90;;;;;;5055700;28;20046;-69
2023/04/11 04:42:20;;;;;;;9.18;5.38;;;11.60;99.90;;;;;;5037572;28;20083;-68
2023/04/11 04:44:47;;;;;;;7.03;4.68;;;11.60;99.90;;;;;;5055667;28;20029;-69
2023/04/11 04:47:13;;;;;;;6.38;4.78;;;11.70;99.90;;;;;;5055658;28;20025;-67
2023/04/11 04:49:39;;;;;;;7.70;4.97;;;11.70;99.90;;;;;;5055191;28;20489;-68
2023/04/11 04:52:05;;;;;;;6.38;4.50;;;11.80;99.90;;;;;;5055184;28;20104;-69
2023/04/11 04:54:31;;;;;;;6.75;4.80;;;11.80;99.90;;;;;;5055270;28;20021;-70
2023/04/11 04:56:58;;;;;;;5.30;3.80;;;11.90;99.90;;;;;;5055323;28;20135;-70
2023/04/11 04:59:25;;;;;;;7.40;4.87;;;12.00;99.90;;;;;;5037527;28;20025;-68
2023/04/11 05:01:52;;;;;;;8.02;4.68;;;12.00;99.90;;;;;;5055710;28;20267;-69
2023/04/11 05:04:18;;;;;;;7.68;4.40;;;11.90;99.90;;;;;;5055240;28;20013;-71
2023/04/11 05:06:44;;;;;;;6.95;4.03;;;12.00;99.90;;;;;;5055179;28;20056;-69
2023/04/11 05:09:10;;;;;;;8.57;4.95;;;12.10;99.90;;;;;;5054974;28;20477;-69
2023/04/11 05:11:37;;;;;;;6.40;4.57;;;12.10;99.90;;;;;;5054369;28;20037;-69
2023/04/11 05:14:03;;;;;;;7.00;5.00;;;11.90;99.90;;;;;;5055256;28;20017;-69
2023/04/11 05:16:29;;;;;;;6.15;4.93;;;11.60;99.90;;;;;;5054726;28;20036;-69
2023/04/11 05:18:55;;;;;;;7.53;4.80;;;11.60;99.90;;;;;;5054796;28;20460;-69
2023/04/11 05:21:21;;;;;;;7.80;5.40;;;11.70;99.90;;;;;;5036798;28;20063;-70
2023/04/11 05:23:47;;;;;;;10.63;4.95;;;12.20;99.90;;;;;;5036929;28;20070;-71
2023/04/11 05:26:14;;;;;;;11.40;6.37;;;13.20;99.90;;;;;;5054633;28;20032;-70
2023/04/11 05:28:40;;;;;;;6.47;4.43;;;15.00;99.90;;;;;;5054875;28;20025;-70
2023/04/11 05:31:07;;;;;;;6.35;4.00;;;17.40;99.90;;;;;;5054497;28;20488;-71
2023/04/11 05:33:36;;;;;;;6.70;3.50;;;19.20;99.90;;;;;;5036530;28;20112;-72
2023/04/11 05:36:05;;;;;;;6.55;3.60;;;20.50;99.90;;;;;;5054386;28;20033;-71
2023/04/11 05:38:32;;;;;;;5.80;3.92;;;22.40;99.90;;;;;;5054322;28;20021;-72
2023/04/11 05:41:00;;;;;;;6.75;3.13;;;22.80;99.90;;;;;;5054439;28;20033;-72
2023/04/11 05:43:26;;;;;;;6.28;3.58;;;22.70;99.90;;;;;;5054446;28;20024;-70
2023/04/11 05:45:52;;;;;;;6.15;3.60;;;21.90;99.90;;;;;;5054398;28;20345;-71
2023/04/11 05:48:22;;;;;;;4.47;3.22;;;21.90;99.90;;;;;;5054185;28;20083;-72
2023/04/11 05:50:51;;;;;;;5.97;3.25;;;22.60;99.90;;;;;;5054509;28;20118;-71
2023/04/11 05:53:18;;;;;;;5.32;3.20;;;23.50;99.90;;;;;;5053913;28;20025;-72
2023/04/11 05:55:44;;;;;;;5.70;3.78;;;24.50;99.90;;;;;;5054293;28;20032;-69
2023/04/11 05:58:10;;;;;;;8.27;3.70;;;23.90;99.80;;;;;;5053978;28;20024;-72
2023/04/11 06:00:38;;;;;;;5.75;3.30;;;24.10;99.90;;;;;;5054252;28;20040;-72
2023/04/11 06:03:06;;;;;;;8.27;3.30;;;27.00;98.00;;;;;;5053854;28;20049;-71
2023/04/11 06:05:33;;;;;;;4.93;3.25;;;27.30;97.20;;;;;;5054050;28;20027;-71
2023/04/11 06:08:01;;;;;;;7.80;3.45;;;28.20;96.10;;;;;;5053204;28;20111;-71
2023/04/11 06:10:28;;;;;;;5.40;3.33;;;28.20;95.50;;;;;;5053969;28;20373;-72
2023/04/11 06:12:55;;;;;;;7.50;3.58;;;27.60;94.90;;;;;;5053461;28;20056;-72
2023/04/11 06:15:22;;;;;;;6.00;3.30;;;25.70;95.40;;;;;;5053569;28;20029;-70
2023/04/11 06:17:49;;;;;;;7.07;3.20;;;24.50;97.10;;;;;;5035870;28;20327;-69
2023/04/11 06:20:15;;;;;;;9.18;3.60;;;24.30;97.20;;;;;;5035779;28;20056;-71
2023/04/11 06:22:42;;;;;;;6.35;2.70;;;25.00;96.90;;;;;;5052913;28;20329;-72
2023/04/11 06:25:09;;;;;;;4.35;2.90;;;24.20;97.10;;;;;;5053670;28;20017;-71
2023/04/11 06:27:36;;;;;;;5.65;3.40;;;23.60;97.80;;;;;;5053619;28;20025;-71
2023/04/11 06:30:01;;;;;;;;;;;24.00;97.80;;;;;;5036110;28;20040;-72
2023/04/11 06:32:28;;;;;;;5.95;3.00;;;24.60;96.60;;;;;;5053456;28;20331;-72
2023/04/11 06:34:54;;;;;;;10.90;3.78;;;24.50;96.80;;;;;;5053634;28;20028;-71
2023/04/11 06:37:21;;;;;;;5.68;2.95;;;26.30;95.70;;;;;;5053035;28;20476;-71
2023/04/11 06:39:47;;;;;;;4.57;2.67;;;26.50;95.00;;;;;;5053715;28;20158;-71
2023/04/11 06:42:13;;;;;;;7.85;3.00;;;27.80;94.10;;;;;;5053485;28;20380;-71
2023/04/11 06:44:39;;;;;;;5.68;3.15;;;28.80;93.00;;;;;;5053679;28;20464;-71
2023/04/11 06:47:05;;;;;;;6.95;3.40;;;29.80;92.60;;;;;;5053979;28;20112;-71
2023/04/11 06:49:31;;;;;;;;;;;30.00;92.40;;;;;;5053917;28;20037;-71
2023/04/11 06:51:58;;;;;;;5.07;3.10;;;29.20;92.90;;;;;;5053046;28;19990;-70
2023/04/11 06:54:24;;;;;;;8.10;4.00;;;29.90;92.60;;;;;;5053022;28;20115;-72
2023/04/11 06:56:51;;;;;;;5.93;3.50;;;29.60;92.30;;;;;;5053143;28;20033;-71
2023/04/11 06:59:19;;;;;;;5.85;3.70;;;28.40;93.10;;;;;;5053128;28;20024;-72
2023/04/11 07:01:46;;;;;;;5.55;3.45;;;28.70;93.00;;;;;;5053185;28;20098;-71
2023/04/11 07:04:12;;;;;;;6.97;3.50;;;29.70;92.00;;;;;;5053432;28;20021;-72
2023/04/11 07:06:38;;;;;;;;;;;30.60;91.40;;;;;;5053433;28;20028;-72
2023/04/11 07:09:05;;;;;;;5.60;3.05;;;30.40;90.40;;;;;;5035031;28;19917;-73
2023/04/11 07:11:32;;;;;;;5.97;3.33;;;30.60;89.30;;;;;;5053045;28;20120;-72
2023/04/11 07:13:59;;;;;;;4.95;3.40;;;31.20;88.60;;;;;;5052774;28;20132;-70
2023/04/11 07:16:25;;;;;;;7.28;3.55;;;30.00;88.60;;;;;;5053383;28;20025;-71
2023/04/11 07:18:53;;;;;;;6.03;3.13;;;29.80;89.20;;;;;;5052422;28;20065;-72
2023/04/11 07:21:20;;;;;;;6.30;3.33;;;30.30;87.50;;;;;;5052884;28;20037;-71
2023/04/11 07:23:46;;;;;;;6.97;3.25;;;31.20;86.10;;;;;;5052420;28;20048;-72
2023/04/11 07:26:15;;;;;;;4.90;2.90;;;28.90;87.50;;;;;;5052719;28;20412;-71
2023/04/11 07:28:43;;;;;;;6.05;3.63;;;27.90;89.50;;;;;;5052217;28;20029;-70
2023/04/11 07:31:13;;;;;;;5.25;3.25;;;25.80;91.30;;;;;;5052498;28;20032;-70
2023/04/11 07:33:42;;;;;;;5.47;3.65;;;23.10;93.70;;;;;;5052567;28;20032;-70
2023/04/11 07:36:09;;;;;;;6.30;3.80;;;22.70;94.30;;;;;;5052424;28;20469;-71
2023/04/11 07:38:36;;;;;;;5.78;3.83;;;23.00;94.00;;;;;;5052217;28;20025;-70
2023/04/11 07:41:03;;;;;;;;;;;21.90;94.80;;;;;;5052538;28;20100;-69
2023/04/11 07:43:30;;;;;;;4.10;3.15;;;19.40;97.20;;;;;;5052215;28;20402;-71
2023/04/11 07:45:57;;;;;;;16.48;4.25;;;19.80;97.00;;;;;;5052057;28;20086;-70
2023/04/11 07:48:25;;;;;;;4.85;3.22;;;19.80;98.20;;;;;;5052452;28;20029;-70
2023/04/11 07:50:54;;;;;;;4.68;3.28;;;20.10;97.30;;;;;;5051667;28;20120;-69
2023/04/11 07:53:23;;;;;;;5.30;3.35;;;20.60;96.90;;;;;;5051400;28;20091;-69
2023/04/11 07:55:49;;;;;;;6.35;3.15;;;19.80;97.40;;;;;;5052044;28;20033;-71
2023/04/11 07:58:17;;;;;;;5.57;3.15;;;20.00;98.00;;;;;;5051727;28;20056;-70
2023/04/11 08:00:43;;;;;;;6.43;3.50;;;20.60;98.10;;;;;;5051739;28;20037;-70
2023/04/11 08:03:10;;;;;;;6.90;3.13;;;20.80;98.30;;;;;;5051582;28;20060;-70
2023/04/11 08:05:36;;;;;;;7.05;3.20;;;21.20;99.20;;;;;;5051911;28;20026;-71
2023/04/11 08:08:03;;;;;;;;;;;21.60;97.70;;;;;;5051787;28;20036;-71
2023/04/11 08:10:29;;;;;;;6.07;3.25;;;21.90;97.40;;;;;;5051534;28;19977;-69
2023/04/11 08:12:56;;;;;;;4.72;2.80;;;21.70;96.80;;;;;;5051377;28;20096;-70
2023/04/11 08:15:22;;;;;;;5.80;2.90;;;21.80;96.60;;;;;;5051957;28;20064;-69
2023/04/11 08:17:54;;;;;;;4.65;2.85;;;21.70;97.20;;;;;;5051612;28;20389;-71
2023/04/11 08:20:21;;;;;;;8.93;2.70;;;21.40;97.30;;;;;;5051754;28;20048;-70
2023/04/11 08:22:47;;;;;;;;;;;21.10;97.30;;;;;;5052488;28;20104;-71
2023/04/11 08:25:15;;;;;;;5.72;3.03;;;20.70;97.30;;;;;;5051743;28;19911;-71
2023/04/11 08:27:41;;;;;;;7.50;2.88;;;20.50;97.90;;;;;;5033804;28;20024;-70
2023/04/11 08:30:07;;;;;;;6.93;3.10;;;21.00;97.80;;;;;;5051537;28;20037;-71
2023/04/11 08:32:36;;;;;;;;;;;21.00;97.80;;;;;;5052410;28;20107;-70
2023/04/11 08:35:03;;;;;;;4.22;2.75;;;19.40;98.80;;;;;;5052273;28;19911;-70
2023/04/11 08:37:29;;;;;;;5.00;3.17;;;18.50;99.90;;;;;;5051841;28;20025;-70
2023/04/11 08:39:56;;;;;;;8.00;4.07;;;19.40;99.90;;;;;;5051724;28;20372;-69
2023/04/11 08:42:29;;;;;;;6.22;3.35;;;20.40;99.90;;;;;;5051841;28;20025;-71
2023/04/11 08:44:58;;;;;;;4.82;3.47;;;21.00;99.20;;;;;;5034008;28;20033;-70
2023/04/11 08:47:25;;;;;;;5.90;2.97;;;20.20;99.80;;;;;;5037136;28;20469;-70
2023/04/11 08:49:52;;;;;;;6.57;3.10;;;20.10;99.60;;;;;;5055277;28;20029;-70
2023/04/11 08:52:18;;;;;;;5.90;3.15;;;20.50;99.20;;;;;;5037735;28;20149;-70
2023/04/11 08:54:45;;;;;;;6.57;2.78;;;20.40;99.50;;;;;;5055419;28;20021;-70
2023/04/11 08:57:24;;;;;;;6.05;3.22;;;20.00;99.10;;;;;;5055554;28;20448;-70
2023/04/11 08:59:52;;;;;;;4.75;2.83;;;19.40;99.90;;;;;;5055065;28;20175;-71
2023/04/11 09:02:18;;;;;;;4.95;3.08;;;19.30;99.90;;;;;;5054981;28;20087;-71
2023/04/11 09:04:46;;;;;;;5.93;2.85;;;19.80;99.80;;;;;;5037031;28;20575;-70
2023/04/11 09:07:15;;;;;;;7.20;3.10;;;19.30;99.90;;;;;;5055325;28;20021;-70
2023/04/11 09:09:42;;;;;;;6.43;2.70;;;19.30;99.90;;;;;;5054175;28;20124;-71
2023/04/11 09:12:08;;;;;;;8.32;4.20;;;18.80;99.30;;;;;;5054821;28;20021;-70
2023/04/11 09:14:35;;;;;;;13.00;3.75;;;18.60;99.90;;;;;;5054730;28;20021;-69
2023/04/11 09:17:03;;;;;;;5.82;3.55;;;18.90;99.90;;;;;;5055002;28;20453;-70
2023/04/11 09:19:32;;;;;;;5.85;2.97;;;18.90;99.90;;;;;;5054605;28;20116;-69
2023/04/11 09:22:00;;;;;;;6.68;3.15;;;18.50;99.90;;;;;;5054502;28;20157;-68
2023/04/11 09:24:29;;;;;;;7.68;2.90;;;19.20;99.90;;;;;;5054500;28;20461;-69
2023/04/11 09:27:15;;;;;;;6.20;2.83;;;19.60;99.90;;;;;;5054407;28;20021;-70
2023/04/11 09:29:48;;;;;;;4.75;2.58;;;19.70;99.50;;;;;;5054447;28;20200;-69
2023/04/11 09:32:33;;;;;;;5.50;2.47;;;19.90;99.20;;;;;;5054404;28;20029;-69
2023/04/11 09:35:15;;;;;;;5.45;2.55;;;19.80;98.10;;;;;;5054522;28;20025;-69
2023/04/11 09:38:10;;;;;;;4.65;2.60;;;19.10;97.50;;;;;;5054306;28;20045;-69
2023/04/11 09:40:43;;;;;;;4.85;2.63;;;18.30;98.60;;;;;;4973485;28;20388;-69
2023/04/11 09:43:09;;;;;;;4.25;2.35;;;18.50;98.40;;;;;;4973628;28;20134;-69
2023/04/11 09:45:35;;;;;;;5.53;2.85;;;18.30;97.40;;;;;;4973219;28;20110;-68
2023/04/11 09:48:01;;;;;;;5.50;2.40;;;18.60;97.30;;;;;;4956847;28;20452;-68
2023/04/11 09:50:27;;;;;;;3.72;2.40;;;19.00;97.20;;;;;;4972987;28;20297;-69
2023/04/11 09:52:57;;;;;;;6.82;2.60;;;19.30;97.60;;;;;;4972812;28;20027;-69
2023/04/11 09:55:24;;;;;;;4.93;2.70;;;19.40;97.10;;;;;;4972917;28;20518;-69
2023/04/11 09:57:52;;;;;;;4.85;2.70;;;19.80;96.90;;;;;;4971616;28;20046;-69
2023/04/11 10:00:21;;;;;;;5.55;2.53;;;20.00;96.60;;;;;;4972650;28;20528;-70
2023/04/11 10:02:51;;;;;;;7.20;2.88;;;20.00;96.10;;;;;;4972765;28;20031;-68
2023/04/11 10:05:25;;;;;;;5.13;2.70;;;19.90;97.00;;;;;;4972461;28;20056;-70
2023/04/11 10:08:11;;;;;;;4.38;2.20;;;20.00;96.40;;;;;;4972407;28;20359;-69
2023/04/11 10:10:37;;;;;;;7.43;2.50;;;19.30;95.60;;;;;;4972073;28;20079;-68
2023/04/11 10:13:42;;;;;;;4.32;2.22;;;18.80;96.00;;;;;;4972459;28;20634;-69
2023/04/11 10:16:13;;;;;;;4.47;2.50;;;18.40;96.50;;;;;;4981589;28;20453;-68
2023/04/11 10:18:54;;;;;;;4.88;2.78;;;19.00;96.50;;;;;;5033237;28;20500;-70
2023/04/11 10:21:29;;;;;;;6.05;2.75;;;19.70;96.30;;;;;;5033754;28;20044;-68
2023/04/11 10:24:11;;;;;;;6.68;3.13;;;19.80;95.50;;;;;;5032935;28;20128;-70
2023/04/11 10:27:09;;;;;;;5.68;2.65;;;19.90;96.50;;;;;;5033168;28;20026;-67
2023/04/11 10:29:46;;;;;;;5.75;2.67;;;19.70;95.90;;;;;;5033485;28;20120;-70
2023/04/11 10:32:16;;;;;;;7.22;2.55;;;19.70;96.10;;;;;;5040960;28;20029;-68
2023/04/11 10:34:54;;;;;;;4.70;2.58;;;19.90;95.70;;;;;;5053229;28;20023;-69
2023/04/11 10:37:29;;;;;;;4.20;2.80;;;20.10;95.50;;;;;;5052408;28;20029;-69
2023/04/11 10:39:57;;;;;;;33.28;10.23;;;20.00;95.70;;;;;;5052570;28;20083;-70
2023/04/11 10:42:26;;;;;;;61.53;23.42;;;20.20;95.80;;;;;;5034619;28;20503;-70
2023/04/11 10:45:23;;;;;;;20.05;7.40;;;20.00;96.60;;;;;;5052755;28;20119;-72
2023/04/11 10:47:55;;;;;;;61.28;27.42;;;19.90;94.50;;;;;;5034477;28;20037;-69
2023/04/11 10:50:24;;;;;;;82.80;43.97;;;19.60;95.80;;;;;;5052130;28;20033;-69
2023/04/11 10:52:52;;;;;;;6.95;3.80;;;19.60;95.90;;;;;;5052181;28;20079;-70
2023/04/11 10:55:18;;;;;;;10.82;5.68;;;19.70;95.70;;;;;;5052588;28;20025;-69
2023/04/11 10:58:18;;;;;;;5.78;2.50;;;20.30;97.30;;;;;;5052807;28;20056;-70
2023/04/11 11:00:50;;;;;;;6.28;2.90;;;20.70;95.90;;;;;;5052558;28;20147;-69
2023/04/11 11:03:18;;;;;;;8.18;4.20;;;20.30;99.90;;;;;;5052864;28;20029;-70
2023/04/11 11:05:46;;;;;;;4.05;2.50;;;19.90;97.20;;;;;;5052242;28;20069;-70
2023/04/11 11:08:13;;;;;;;4.00;2.45;;;20.00;95.30;;;;;;5052147;28;20036;-70
2023/04/11 11:10:46;;;;;;;6.28;2.85;;;19.80;95.60;;;;;;5052089;28;20032;-69
2023/04/11 11:13:16;;;;;;;9.40;3.15;;;20.10;97.70;;;;;;5052667;28;20072;-69
2023/04/11 11:15:49;;;;;;;4.75;2.50;;;20.80;99.90;;;;;;5052801;28;20048;-71
2023/04/11 11:18:17;;;;;;;7.25;3.80;;;21.40;99.90;;;;;;5052802;28;20048;-70
2023/04/11 11:20:43;;;;;;;16.23;5.47;;;21.30;99.50;;;;;;5052354;28;20571;-70
2023/04/11 11:23:10;;;;;;;10.88;3.83;;;21.20;99.90;;;;;;5034367;28;20021;-70
2023/04/11 11:25:36;;;;;;;6.82;3.58;;;21.80;99.90;;;;;;5052070;28;20366;-70
2023/04/11 11:28:05;;;;;;;7.30;3.10;;;21.90;98.90;;;;;;5051747;28;20025;-71
2023/04/11 11:30:32;;;;;;;10.88;4.20;;;21.20;98.90;;;;;;5051679;28;20485;-70
2023/04/11 11:33:12;;;;;;;5.38;3.10;;;21.30;99.70;;;;;;5051821;28;20107;-71
2023/04/11 11:35:38;;;;;;;5.95;2.70;;;21.50;99.30;;;;;;5041717;28;20056;-66
2023/04/11 11:38:05;;;;;;;9.15;3.20;;;21.60;98.50;;;;;;5025232;28;20036;-70
2023/04/11 11:40:31;;;;;;;8.25;4.15;;;21.30;98.30;;;;;;5039784;28;20025;-70
2023/04/11 11:42:58;;;;;;;6.43;3.03;;;21.00;98.40;;;;;;5039440;28;20052;-68
2023/04/11 11:45:24;;;;;;;7.22;2.55;;;21.10;96.10;;;;;;5047044;28;20025;-69
2023/04/11 11:47:51;;;;;;;6.30;2.78;;;20.90;95.20;;;;;;5050731;28;20040;-69
2023/04/11 11:50:43;;;;;;;5.38;3.38;;;20.80;94.30;;;;;;5050300;28;20065;-69
2023/04/11 11:53:14;;;;;;;7.43;2.65;;;20.60;95.20;;;;;;5049737;28;20412;-67
2023/04/11 11:55:42;;;;;;;4.60;2.53;;;20.20;95.70;;;;;;5051949;28;20029;-69
2023/04/11 11:58:08;;;;;;;5.28;2.95;;;20.40;96.60;;;;;;5050530;28;20029;-67
2023/04/11 12:00:38;;;;;;;5.90;2.88;;;20.80;96.70;;;;;;5050562;28;20086;-67
2023/04/11 12:03:08;;;;;;;5.38;2.70;;;20.60;96.50;;;;;;5050012;28;20036;-68
2023/04/11 12:05:35;;;;;;;5.30;3.10;;;20.50;96.90;;;;;;5047743;28;20028;-67
2023/04/11 12:08:06;;;;;;;5.38;2.83;;;20.50;97.20;;;;;;5032864;28;20029;-69
2023/04/11 12:10:37;;;;;;;5.78;2.88;;;20.90;96.00;;;;;;5045089;28;20045;-69
2023/04/11 12:13:15;;;;;;;5.90;2.70;;;20.70;95.20;;;;;;5050123;28;20021;-68
2023/04/11 12:15:45;;;;;;;5.82;2.83;;;21.10;95.30;;;;;;5049777;28;20025;-69
2023/04/11 12:18:11;;;;;;;9.93;2.88;;;21.70;94.90;;;;;;5049450;28;20485;-68
2023/04/11 12:20:37;;;;;;;5.80;3.55;;;21.30;93.90;;;;;;5040017;28;20049;-68
2023/04/11 12:23:03;;;;;;;6.97;3.40;;;21.00;94.40;;;;;;5045217;28;20028;-69
2023/04/11 12:25:30;;;;;;;4.93;2.83;;;20.90;94.90;;;;;;5048651;28;20037;-68
2023/04/11 12:27:56;;;;;;;7.22;3.40;;;21.00;95.10;;;;;;5042680;28;20104;-67
2023/04/11 12:30:23;;;;;;;5.50;2.78;;;21.30;95.70;;;;;;5041993;28;20045;-67
2023/04/11 12:32:49;;;;;;;8.75;3.55;;;21.60;95.80;;;;;;5041836;28;20032;-68
2023/04/11 12:35:17;;;;;;;4.90;3.15;;;22.00;95.70;;;;;;5041552;28;20438;-66
2023/04/11 12:37:43;;;;;;;5.65;2.80;;;22.10;95.40;;;;;;5047470;28;20022;-68
2023/04/11 12:40:11;;;;;;;5.68;3.05;;;21.20;95.10;;;;;;5049405;28;20029;-67
2023/04/11 12:42:41;;;;;;;5.15;2.70;;;20.90;96.10;;;;;;5048944;28;20126;-69
2023/04/11 12:45:08;;;;;;;9.18;2.95;;;21.40;99.10;;;;;;5033808;28;20101;-67
2023/04/11 12:47:36;;;;;;;5.22;3.00;;;21.90;99.90;;;;;;5049713;28;20049;-68
2023/04/11 12:50:05;;;;;;;10.75;3.00;;;21.90;99.90;;;;;;5053231;28;20040;-67
2023/04/11 12:52:31;;;;;;;5.80;2.83;;;21.80;99.90;;;;;;5049021;28;20013;-69
2023/04/11 12:54:57;;;;;;;10.45;3.47;;;21.70;99.90;;;;;;5050943;28;20086;-68
2023/04/11 12:57:24;;;;;;;7.30;3.30;;;21.40;99.90;;;;;;5047943;28;20021;-68